Time;durP1;ratioP1;P1;durP2;ratioP2;P2;SDS_P1;SDS_P2;PMS_P1;PMS_P2;Temp;Humidity;BMP_temperature;BMP_pressure;BME280_temperature;BME280_humidity;BME280_pressure;Samples;Min_cycle;Max_cycle;Signal;HPM_P1;HPM_P2
2021/06/25 00:02:21;;;;;;;;;15.75;15.50;;;;;23.70;38.37;101789.50;5015367;28;50992;-45
2021/06/25 00:04:47;;;;;;;;;17.50;15.50;;;;;23.69;38.48;101782.28;5015768;28;50877;-45
2021/06/25 00:07:12;;;;;;;;;22.75;16.75;;;;;23.68;38.51;101784.19;5017289;27;51551;-45
2021/06/25 00:09:38;;;;;;;;;20.75;19.25;;;;;23.68;38.16;101786.09;5016999;28;51193;-44
2021/06/25 00:12:05;;;;;;;;;21.25;19.75;;;;;23.67;38.45;101781.66;5017997;28;51187;-42
2021/06/25 00:14:32;;;;;;;;;14.75;13.00;;;;;23.67;38.75;101778.88;5031287;28;51265;-42
2021/06/25 00:16:58;;;;;;;;;15.25;13.50;;;;;23.66;38.45;101778.03;5029763;27;51133;-44
2021/06/25 00:19:23;;;;;;;;;19.25;17.00;;;;;23.66;38.14;101782.72;5014683;28;51082;-45
2021/06/25 00:21:49;;;;;;;;;19.75;16.00;;;;;23.66;38.22;101777.19;5014335;28;51035;-43
2021/06/25 00:24:14;;;;;;;;;17.25;16.25;;;;;23.65;38.77;101776.31;5015715;27;51125;-43
2021/06/25 00:26:40;;;;;;;;;18.00;16.00;;;;;23.65;38.62;101772.69;5017344;28;51893;-44
2021/06/25 00:29:05;;;;;;;;;16.00;15.50;;;;;23.65;38.90;101769.94;5025123;27;51079;-45
2021/06/25 00:31:30;;;;;;;;;20.75;16.75;;;;;23.65;38.73;101772.69;5016078;28;51051;-44
2021/06/25 00:33:56;;;;;;;;;15.00;13.75;;;;;23.64;38.62;101771.00;5015380;28;51018;-42
2021/06/25 00:36:21;;;;;;;;;18.75;16.25;;;;;23.63;39.15;101772.91;5013063;28;51928;-42
2021/06/25 00:38:47;;;;;;;;;18.50;17.75;;;;;23.64;38.56;101773.78;5014424;28;51161;-46
2021/06/25 00:41:12;;;;;;;;;16.50;13.50;;;;;23.64;38.85;101774.63;5014948;28;51146;-42
2021/06/25 00:43:38;;;;;;;;;15.75;13.00;;;;;23.64;38.75;101766.31;5015835;28;51386;-42
2021/06/25 00:46:04;;;;;;;;;14.75;14.75;;;;;23.64;38.90;101758.03;5019071;27;51902;-46
2021/06/25 00:48:30;;;;;;;;;17.00;15.75;;;;;23.64;38.65;101752.50;5019504;28;50941;-43
2021/06/25 00:50:55;;;;;;;;;18.50;18.00;;;;;23.65;38.91;101754.19;5014966;28;51090;-45
2021/06/25 00:53:21;;;;;;;;;17.00;14.50;;;;;23.64;39.11;101746.97;5014852;27;51089;-43
2021/06/25 00:55:46;;;;;;;;;18.25;15.25;;;;;23.65;38.61;101750.56;5015439;28;51430;-42
2021/06/25 00:58:14;;;;;;;;;12.00;12.00;;;;;23.65;39.17;101748.66;5014418;27;51036;-44
2021/06/25 01:00:40;;;;;;;;;20.25;15.00;;;;;23.65;38.84;101745.88;5016579;28;51162;-44
2021/06/25 01:03:05;;;;;;;;;18.50;15.00;;;;;23.64;38.70;101740.56;5017323;27;51111;-43
2021/06/25 01:05:31;;;;;;;;;16.00;15.25;;;;;23.63;38.95;101734.19;5015335;28;51965;-44
2021/06/25 01:07:57;;;;;;;;;15.25;14.75;;;;;23.64;39.18;101735.03;5013044;28;51113;-47
2021/06/25 01:10:22;;;;;;;;;17.75;15.75;;;;;23.63;38.79;101736.97;5014938;28;52267;-44
2021/06/25 01:12:48;;;;;;;;;11.00;11.00;;;;;23.64;39.42;101738.66;5015211;28;51329;-43
2021/06/25 01:15:14;;;;;;;;;18.25;14.50;;;;;23.62;39.02;101729.75;5013591;28;51295;-42
2021/06/25 01:17:42;;;;;;;;;17.00;16.25;;;;;23.63;39.18;101739.72;5015115;28;51103;-42
2021/06/25 01:20:16;;;;;;;;;17.50;17.00;;;;;23.64;39.49;101735.03;5031575;28;51121;-44
2021/06/25 01:22:42;;;;;;;;;14.75;12.50;;;;;23.63;39.30;101725.06;5024800;28;51326;-45
2021/06/25 01:25:09;;;;;;;;;14.50;12.00;;;;;23.63;39.11;101723.13;5032741;28;51304;-42
2021/06/25 01:27:36;;;;;;;;;19.50;17.25;;;;;23.63;39.15;101722.28;5029937;27;51331;-44
2021/06/25 01:30:05;;;;;;;;;15.50;12.50;;;;;23.63;39.35;101722.28;5013830;28;50995;-43
2021/06/25 01:32:31;;;;;;;;;16.50;14.50;;;;;23.62;39.17;101724.22;5014026;28;51342;-45
2021/06/25 01:35:00;;;;;;;;;15.00;14.00;;;;;23.61;39.06;101717.84;5014153;28;51027;-45
2021/06/25 01:37:26;;;;;;;;;17.25;14.50;;;;;23.63;39.63;101725.06;5018053;28;51383;-43
2021/06/25 01:39:51;;;;;;;;;16.75;12.50;;;;;23.63;39.43;101727.81;5017122;28;51037;-45
2021/06/25 01:42:17;;;;;;;;;14.00;14.00;;;;;23.63;39.67;101725.06;5014121;27;50886;-42
2021/06/25 01:44:44;;;;;;;;;19.25;15.50;;;;;23.63;39.29;101722.28;5014031;28;51656;-47
2021/06/25 01:47:10;;;;;;;;;17.75;15.25;;;;;23.63;39.70;101728.66;5016442;28;51442;-43
2021/06/25 01:49:37;;;;;;;;;13.75;13.75;;;;;23.62;39.29;101726.97;5014346;28;51151;-44
2021/06/25 01:52:03;;;;;;;;;15.25;15.25;;;;;23.61;39.51;101723.38;5018316;28;51531;-42
2021/06/25 01:54:28;;;;;;;;;15.00;13.25;;;;;23.61;39.79;101715.06;5019400;28;52499;-42
2021/06/25 01:56:53;;;;;;;;;15.25;14.50;;;;;23.62;39.15;101715.91;5015998;28;50953;-42
2021/06/25 01:59:21;;;;;;;;;15.50;14.50;;;;;23.60;39.20;101707.84;5012437;28;51169;-42
2021/06/25 02:01:46;;;;;;;;;18.00;14.75;;;;;23.61;39.31;101711.44;5013829;28;50989;-43
2021/06/25 02:04:12;;;;;;;;;18.75;16.00;;;;;23.62;39.66;101699.31;5011758;28;51885;-44
2021/06/25 02:06:37;;;;;;;;;14.00;14.00;;;;;23.61;39.25;101694.84;5012113;27;51334;-43
2021/06/25 02:09:03;;;;;;;;;16.00;15.50;;;;;23.61;39.24;101694.84;5013091;28;50967;-45
2021/06/25 02:11:28;;;;;;;;;18.75;16.00;;;;;23.61;39.43;101692.09;5017435;28;51359;-45
2021/06/25 02:13:54;;;;;;;;;15.75;12.50;;;;;23.59;39.44;101689.56;5019244;28;51582;-45
2021/06/25 02:16:19;;;;;;;;;13.00;12.25;;;;;23.61;39.27;101686.56;5013191;27;51097;-44
2021/06/25 02:18:45;;;;;;;;;15.25;11.50;;;;;23.61;39.39;101690.16;5017020;28;51082;-43
2021/06/25 02:21:10;;;;;;;;;15.50;14.25;;;;;23.60;39.50;101685.72;5016376;28;50979;-47
2021/06/25 02:23:36;;;;;;;;;15.25;15.25;;;;;23.60;39.73;101685.72;5013116;27;51652;-42
2021/06/25 02:26:02;;;;;;;;;12.00;12.00;;;;;23.60;39.69;101677.41;5028428;28;51122;-44
2021/06/25 02:28:27;;;;;;;;;17.25;14.50;;;;;23.60;39.58;101677.41;5017690;27;51264;-43
2021/06/25 02:30:54;;;;;;;;;14.00;14.00;;;;;23.59;39.43;101678.50;5029883;28;51425;-43
2021/06/25 02:33:20;;;;;;;;;15.00;13.25;;;;;23.59;40.03;101681.25;5012997;27;51098;-42
2021/06/25 02:35:45;;;;;;;;;16.75;14.75;;;;;23.59;39.78;101678.50;5022384;28;50996;-42
2021/06/25 02:38:11;;;;;;;;;17.50;14.75;;;;;23.58;39.84;101682.34;5043854;28;51054;-43
2021/06/25 02:40:36;;;;;;;;;14.25;10.50;;;;;23.59;39.48;101672.13;5014763;28;50989;-43
2021/06/25 02:43:02;;;;;;;;;13.75;13.75;;;;;23.58;40.07;101667.63;5015563;28;51065;-44
2021/06/25 02:45:27;;;;;;;;;15.50;14.25;;;;;23.58;39.92;101671.28;5017058;28;51090;-42
2021/06/25 02:47:53;;;;;;;;;14.75;14.25;;;;;23.57;40.02;101669.53;5017514;28;52385;-46
2021/06/25 02:50:18;;;;;;;;;13.75;13.75;;;;;23.57;39.45;101658.47;5013429;28;51040;-43
2021/06/25 02:52:44;;;;;;;;;17.25;14.50;;;;;23.58;39.69;101664.84;5012463;28;51642;-44
2021/06/25 02:55:11;;;;;;;;;13.25;12.50;;;;;23.57;39.72;101666.78;5027845;28;50366;-43
2021/06/25 02:57:37;;;;;;;;;15.50;14.00;;;;;23.57;39.46;101664.00;5020478;28;51073;-42
2021/06/25 03:00:05;;;;;;;;;17.00;15.75;;;;;23.56;39.71;101667.84;5014269;28;51219;-42
2021/06/25 03:02:31;;;;;;;;;14.25;13.00;;;;;23.57;39.90;101665.94;5008164;28;53149;-43
2021/06/25 03:04:56;;;;;;;;;15.75;14.75;;;;;23.55;39.49;101660.63;5022251;28;51082;-42
2021/06/25 03:07:21;;;;;;;;;17.00;15.75;;;;;23.56;39.84;101667.84;5033967;28;51635;-42
2021/06/25 03:09:47;;;;;;;;;14.00;12.75;;;;;23.55;40.08;101666.16;5014970;28;51147;-42
2021/06/25 03:12:12;;;;;;;;;14.75;14.50;;;;;23.56;40.01;101667.84;5012392;27;50899;-45
2021/06/25 03:14:39;;;;;;;;;16.25;13.25;;;;;23.55;39.75;101663.41;5012477;28;51129;-44
2021/06/25 03:17:05;;;;;;;;;14.50;14.50;;;;;23.55;39.67;101657.88;5013125;28;51033;-42
2021/06/25 03:19:30;;;;;;;;;15.75;14.00;;;;;23.55;39.82;101663.41;5015089;28;51117;-43
2021/06/25 03:21:55;;;;;;;;;17.75;16.25;;;;;23.54;40.09;101652.53;5016129;28;51805;-42
2021/06/25 03:24:21;;;;;;;;;18.75;16.25;;;;;23.53;40.07;101657.22;5013312;27;50987;-44
2021/06/25 03:26:46;;;;;;;;;15.50;15.25;;;;;23.54;40.07;101658.91;5014690;28;51272;-43
2021/06/25 03:29:11;;;;;;;;;16.00;13.75;;;;;23.53;39.73;101659.97;5017953;27;51291;-42
2021/06/25 03:31:37;;;;;;;;;16.50;14.25;;;;;23.52;40.05;101655.53;5014958;28;51837;-41
2021/06/25 03:34:02;;;;;;;;;15.25;13.25;;;;;23.52;40.07;101657.44;5015218;27;51001;-42
2021/06/25 03:36:28;;;;;;;;;18.25;17.00;;;;;23.51;39.68;101658.50;5019394;28;50986;-43
2021/06/25 03:38:53;;;;;;;;;13.75;13.25;;;;;23.51;39.90;101664.03;5021036;28;51399;-43
2021/06/25 03:41:18;;;;;;;;;17.00;13.50;;;;;23.50;39.97;101657.66;5016875;28;51831;-44
2021/06/25 03:43:44;;;;;;;;;17.00;15.50;;;;;23.50;39.95;101659.59;5030786;28;51238;-42
2021/06/25 03:46:09;;;;;;;;;18.50;15.75;;;;;23.48;39.94;101665.34;5017081;27;51107;-42
2021/06/25 03:48:35;;;;;;;;;16.75;13.25;;;;;23.49;40.09;101669.81;5030386;27;50994;-45
2021/06/25 03:51:00;;;;;;;;;15.00;13.75;;;;;23.50;39.69;101667.88;5032116;28;57414;-42
2021/06/25 03:53:25;;;;;;;;;16.75;15.00;;;;;23.48;39.50;101665.34;5017680;27;51247;-43
2021/06/25 03:56:12;;;;;;;;;16.75;15.00;;;;;23.48;39.51;101668.13;5019293;28;50963;-42
2021/06/25 03:58:45;;;;;;;;;15.00;15.00;;;;;23.47;39.65;101663.66;5015608;28;51152;-42
2021/06/25 04:01:14;;;;;;;;;16.50;15.00;;;;;23.48;40.00;101658.97;5030245;28;51859;-42
2021/06/25 04:03:40;;;;;;;;;12.75;10.75;;;;;23.47;39.69;101652.59;5015261;28;51022;-42
2021/06/25 04:06:06;;;;;;;;;14.00;12.00;;;;;23.46;40.19;101656.44;5015163;28;51507;-44
2021/06/25 04:08:34;;;;;;;;;18.00;16.50;;;;;23.46;39.96;101656.44;5015560;28;51046;-42
2021/06/25 04:11:01;;;;;;;;;15.75;14.25;;;;;23.48;39.51;101658.97;5013745;28;51863;-41
2021/06/25 04:13:28;;;;;;;;;20.75;18.25;;;;;23.48;39.84;101653.44;5018771;28;51117;-42
2021/06/25 04:15:54;;;;;;;;;21.50;17.00;;;;;23.47;39.63;101652.59;5017402;28;51142;-41
2021/06/25 04:18:20;;;;;;;;;18.75;16.00;;;;;23.47;40.12;101638.78;5037010;27;51176;-41
2021/06/25 04:20:46;;;;;;;;;16.75;15.75;;;;;23.47;40.11;101648.97;5014867;28;52663;-43
2021/06/25 04:23:12;;;;;;;;;14.50;14.50;;;;;23.46;40.29;101647.28;5015799;28;51138;-45
2021/06/25 04:25:38;;;;;;;;;17.00;16.50;;;;;23.45;39.89;101654.75;5015143;27;50982;-43
2021/06/25 04:28:03;;;;;;;;;17.00;13.00;;;;;23.46;39.70;101648.13;5026229;27;51019;-41
2021/06/25 04:30:29;;;;;;;;;17.25;15.25;;;;;23.46;39.70;101650.91;5029656;28;51148;-44
2021/06/25 04:32:58;;;;;;;;;16.00;12.50;;;;;23.47;39.89;101663.66;5020215;28;51236;-45
2021/06/25 04:35:23;;;;;;;;;22.25;17.75;;;;;23.46;40.27;101652.81;5018044;27;51054;-43
2021/06/25 04:37:48;;;;;;;;;17.50;15.50;;;;;23.46;40.42;101661.97;5014888;28;50975;-44
2021/06/25 04:40:14;;;;;;;;;16.75;13.50;;;;;23.47;40.30;101657.28;5014557;27;51732;-44
2021/06/25 04:42:39;;;;;;;;;21.00;19.00;;;;;23.46;39.97;101661.97;5015652;28;50968;-44
2021/06/25 04:45:05;;;;;;;;;16.00;15.00;;;;;23.46;40.15;101663.88;5015727;28;51164;-45
2021/06/25 04:47:31;;;;;;;;;17.00;13.00;;;;;23.46;40.06;101659.19;5017363;28;51032;-44
2021/06/25 04:49:56;;;;;;;;;16.50;16.50;;;;;23.45;39.89;101657.50;5017561;28;51970;-43
2021/06/25 04:52:21;;;;;;;;;16.50;13.75;;;;;23.46;40.42;101658.34;5013722;28;50984;-44
2021/06/25 04:54:47;;;;;;;;;17.00;16.75;;;;;23.45;39.99;101654.75;5014504;27;51107;-42
2021/06/25 04:57:12;;;;;;;;;17.75;16.50;;;;;23.44;39.92;101650.25;5016053;28;51108;-42
2021/06/25 04:59:37;;;;;;;;;17.25;16.00;;;;;23.45;39.94;101653.91;5022959;28;51243;-42
2021/06/25 05:02:03;;;;;;;;;20.50;15.75;;;;;23.44;40.27;101657.69;5025063;27;51414;-45
2021/06/25 05:04:28;;;;;;;;;22.00;18.25;;;;;23.44;39.83;101646.63;5016106;28;51503;-46
2021/06/25 05:06:53;;;;;;;;;23.75;17.75;;;;;23.44;39.79;101652.16;5019731;28;51101;-47
2021/06/25 05:09:19;;;;;;;;;19.25;18.25;;;;;23.42;40.34;101657.94;5016409;28;51118;-43
2021/06/25 05:11:44;;;;;;;;;20.75;20.00;;;;;23.39;39.97;101655.63;5009345;28;51097;-43
2021/06/25 05:14:10;;;;;;;;;21.75;18.75;;;;;23.37;40.03;101655.00;5017075;28;51082;-46
2021/06/25 05:16:35;;;;;;;;;23.25;22.50;;;;;23.37;39.80;101659.69;5016117;27;51150;-45
2021/06/25 05:19:02;;;;;;;;;15.25;15.25;;;;;23.34;39.97;101660.94;5013866;28;51653;-42
2021/06/25 05:21:27;;;;;;;;;19.00;17.75;;;;;23.32;40.30;101661.19;5016484;28;50948;-44
2021/06/25 05:23:52;;;;;;;;;23.00;19.75;;;;;23.30;40.10;101660.56;5017363;28;51121;-48
2021/06/25 05:26:20;;;;;;;;;16.00;14.50;;;;;23.28;40.17;101657.16;5015239;28;51310;-43
2021/06/25 05:28:45;;;;;;;;;21.75;19.50;;;;;23.27;39.82;101657.41;5018340;27;52014;-43
2021/06/25 05:31:11;;;;;;;;;20.50;19.00;;;;;23.24;39.97;101653.16;5014558;27;51213;-46
2021/06/25 05:33:36;;;;;;;;;23.00;20.25;;;;;23.24;40.02;101657.81;5013650;27;51126;-43
2021/06/25 05:36:02;;;;;;;;;22.75;19.75;;;;;23.22;39.89;101658.03;5027324;28;51329;-43
2021/06/25 05:38:27;;;;;;;;;21.50;18.50;;;;;23.20;40.20;101662.94;5013312;28;52548;-46
2021/06/25 05:40:52;;;;;;;;;20.00;16.75;;;;;23.19;40.31;101664.03;5006901;27;51071;-40
2021/06/25 05:43:18;;;;;;;;;25.00;20.25;;;;;23.19;40.36;101657.66;5018132;28;51197;-43
2021/06/25 05:45:43;;;;;;;;;18.25;17.25;;;;;23.20;40.28;101657.44;5016104;28;51104;-48
2021/06/25 05:48:09;;;;;;;;;19.25;16.50;;;;;23.21;40.05;101664.66;5027979;28;52613;-46
2021/06/25 05:50:35;;;;;;;;;21.50;17.25;;;;;23.22;40.58;101659.97;5011438;28;51415;-43
2021/06/25 05:53:00;;;;;;;;;18.25;17.00;;;;;23.24;40.09;101668.88;5033684;27;51072;-45
2021/06/25 05:55:26;;;;;;;;;16.75;15.25;;;;;23.24;40.85;101658.69;5013832;28;51108;-43
2021/06/25 05:57:51;;;;;;;;;16.25;13.75;;;;;23.26;40.42;101669.53;5013148;28;52557;-43
2021/06/25 06:00:18;;;;;;;;;17.75;16.75;;;;;23.28;40.45;101664.63;5014349;28;51124;-43
2021/06/25 06:02:44;;;;;;;;;17.25;16.50;;;;;23.28;41.27;101667.38;5043449;27;51110;-45
2021/06/25 06:05:11;;;;;;;;;18.75;16.00;;;;;23.30;41.38;101666.09;5017077;28;51168;-45
2021/06/25 06:07:37;;;;;;;;;16.75;15.50;;;;;23.30;41.28;101668.00;5027606;28;51850;-43
2021/06/25 06:10:04;;;;;;;;;17.75;15.75;;;;;23.30;41.45;101668.00;5017676;28;51564;-42
2021/06/25 06:12:29;;;;;;;;;20.00;17.75;;;;;23.29;41.98;101661.63;5012047;28;51231;-44
2021/06/25 06:14:54;;;;;;;;;17.50;16.00;;;;;23.30;42.56;101673.53;5019193;28;51114;-44
2021/06/25 06:17:21;;;;;;;;;21.50;19.25;;;;;23.29;42.36;101669.06;5025992;27;52362;-43
2021/06/25 06:19:52;;;;;;;;;18.75;15.50;;;;;23.30;42.50;101663.31;5024929;28;50862;-44
2021/06/25 06:33:19;;;;;;;;;19.25;17.00;;;;;23.28;42.06;101654.41;5012258;28;51356;-46
2021/06/25 06:35:44;;;;;;;;;20.00;17.25;;;;;23.27;41.66;101654.63;5011119;28;51503;-46
2021/06/25 06:38:10;;;;;;;;;12.75;12.25;;;;;23.27;42.03;101655.47;5011044;28;51262;-48
2021/06/25 06:40:35;;;;;;;;;15.50;15.25;;;;;23.26;42.24;101653.78;5008384;28;51209;-49
2021/06/25 06:43:01;;;;;;;;;17.25;17.25;;;;;23.28;41.84;101653.56;5012270;28;51009;-51
2021/06/25 06:45:26;;;;;;;;;17.00;15.50;;;;;23.28;41.70;101643.34;5008125;28;51267;-46
2021/06/25 06:47:52;;;;;;;;;15.25;15.25;;;;;23.30;42.05;101656.94;5019044;27;51975;-47
2021/06/25 06:50:18;;;;;;;;;17.00;12.50;;;;;23.31;42.56;101647.56;5001713;27;51254;-47
2021/06/25 06:52:46;;;;;;;;;17.00;13.00;;;;;23.32;42.32;101655.66;5031810;27;51110;-49
2021/06/25 06:55:13;;;;;;;;;17.25;17.00;;;;;23.33;41.91;101654.56;5010751;27;51365;-45
2021/06/25 06:57:39;;;;;;;;;22.50;19.25;;;;;23.34;42.04;101647.13;5006225;28;52997;-48
2021/06/25 07:00:06;;;;;;;;;16.25;14.00;;;;;23.35;42.22;101653.53;5005916;28;51255;-47
2021/06/25 07:02:32;;;;;;;;;19.75;15.75;;;;;23.33;41.80;101651.81;5013044;27;51331;-46
2021/06/25 07:04:57;;;;;;;;;18.25;16.00;;;;;23.33;42.11;101656.50;5016259;28;51455;-48
2021/06/25 07:07:23;;;;;;;;;19.25;17.75;;;;;23.35;42.25;101654.38;5017442;28;52268;-45
2021/06/25 07:09:48;;;;;;;;;18.50;15.00;;;;;23.35;42.19;101659.91;5018302;28;51100;-49
2021/06/25 07:12:14;;;;;;;;;21.25;20.00;;;;;23.35;41.71;101656.31;5030687;28;51142;-46
2021/06/25 07:14:39;;;;;;;;;15.25;15.25;;;;;23.34;41.65;101652.66;5014649;28;51112;-48
2021/06/25 07:17:04;;;;;;;;;17.00;16.25;;;;;23.33;41.97;101654.56;5013637;27;51267;-47
2021/06/25 07:19:30;;;;;;;;;20.25;16.50;;;;;23.33;41.44;101659.25;5014741;28;50999;-48
2021/06/25 07:21:55;;;;;;;;;21.00;17.00;;;;;23.32;41.18;101652.03;5014415;28;51112;-46
2021/06/25 07:24:20;;;;;;;;;21.25;19.75;;;;;23.30;40.81;101648.66;5015248;28;51245;-50
2021/06/25 07:26:46;;;;;;;;;21.25;18.25;;;;;23.28;41.16;101648.03;5030405;28;51258;-45
2021/06/25 07:29:13;;;;;;;;;18.75;18.75;;;;;23.25;41.06;101643.81;5058434;27;51145;-50
2021/06/25 07:31:39;;;;;;;;;19.25;18.50;;;;;23.23;40.50;101645.06;5014881;28;51106;-48
2021/06/25 07:34:04;;;;;;;;;19.00;17.25;;;;;23.21;40.70;101645.28;5028303;28;51162;-46
2021/06/25 07:36:30;;;;;;;;;18.25;18.00;;;;;23.19;40.97;101635.53;5018777;28;51066;-48
2021/06/25 07:38:55;;;;;;;;;19.75;19.25;;;;;23.17;40.47;101634.91;5019389;28;51283;-47
2021/06/25 07:41:20;;;;;;;;;26.50;20.50;;;;;23.14;41.05;101636.22;5024618;28;51411;-49
2021/06/25 07:43:46;;;;;;;;;18.50;17.75;;;;;23.13;40.78;101628.13;5016242;28;51048;-48
2021/06/25 07:46:11;;;;;;;;;21.25;19.50;;;;;23.11;40.40;101633.03;5016246;28;51797;-47
2021/06/25 07:48:36;;;;;;;;;18.50;17.25;;;;;;;;5012807;28;51224;-50
2021/06/25 07:51:02;;;;;;;;;20.00;17.33;;;;;23.08;40.75;101633.47;5014078;28;51046;-48
2021/06/25 07:53:27;;;;;;;;;20.00;15.75;;;;;23.06;40.98;101625.41;5014631;27;51098;-49
2021/06/25 07:55:53;;;;;;;;;23.25;18.75;;;;;23.04;40.37;101631.16;5012132;28;51006;-48
2021/06/25 07:58:18;;;;;;;;;16.75;16.25;;;;;23.03;40.47;101620.31;5016550;28;51139;-49
2021/06/25 08:00:44;;;;;;;;;18.50;15.75;;;;;23.02;40.87;101625.00;5037730;28;50979;-51
2021/06/25 08:03:09;;;;;;;;;19.00;16.00;;;;;23.07;41.10;101624.34;5013876;28;51096;-47
2021/06/25 08:05:36;;;;;;;;;19.50;19.25;;;;;23.11;41.19;101621.97;5012945;27;51295;-52
2021/06/25 08:08:02;;;;;;;;;25.50;22.50;;;;;23.11;40.18;101614.53;5014464;27;51414;-53
2021/06/25 08:10:27;;;;;;;;;22.00;17.50;;;;;23.12;40.43;101618.97;5009536;28;51085;-53
2021/06/25 08:12:53;;;;;;;;;22.75;18.75;;;;;23.12;40.36;101605.16;5012955;28;51070;-53
2021/06/25 08:15:18;;;;;;;;;24.50;20.50;;;;;23.12;40.66;101616.22;5012546;28;51100;-51
2021/06/25 08:17:44;;;;;;;;;17.75;16.25;;;;;23.12;40.43;101613.47;5022957;27;51098;-50
2021/06/25 08:20:10;;;;;;;;;19.75;18.25;;;;;23.12;40.28;101616.22;5033403;27;51207;-53
2021/06/25 08:22:36;;;;;;;;;20.50;18.00;;;;;23.14;40.48;101613.25;5014909;28;52274;-49
2021/06/25 08:25:01;;;;;;;;;20.50;19.00;;;;;23.14;40.23;101610.50;5013431;28;51651;-52
2021/06/25 08:27:27;;;;;;;;;23.50;20.50;;;;;23.14;40.09;101608.56;5021988;27;51424;-53
2021/06/25 08:29:55;;;;;;;;;18.75;17.00;;;;;23.16;40.42;101603.66;5013967;28;51086;-47
2021/06/25 08:32:20;;;;;;;;;18.00;16.25;;;;;23.16;40.41;101605.59;5014884;28;51255;-49
2021/06/25 08:34:45;;;;;;;;;23.50;20.00;;;;;23.16;40.53;101606.44;5014854;28;51177;-50
2021/06/25 08:37:12;;;;;;;;;18.75;17.25;;;;;23.16;40.74;101600.91;5014567;28;51119;-50
2021/06/25 08:39:38;;;;;;;;;18.50;17.25;;;;;23.15;40.14;101592.84;5007964;28;51239;-47
2021/06/25 08:42:04;;;;;;;;;14.00;14.00;;;;;23.16;40.68;101605.59;5011025;28;51121;-50
2021/06/25 08:44:40;;;;;;;;;20.00;19.25;;;;;23.13;40.92;101589.44;5009006;28;54174;-49
2021/06/25 08:47:07;;;;;;;;;19.50;18.50;;;;;23.13;41.03;101589.44;5023144;27;51202;-50
2021/06/25 08:49:38;;;;;;;;;19.75;15.00;;;;;23.12;40.72;101584.97;5023592;27;51177;-51
2021/06/25 08:52:05;;;;;;;;;20.50;19.00;;;;;23.13;41.00;101589.44;5065910;27;51577;-51
2021/06/25 08:54:30;;;;;;;;;23.75;19.25;;;;;23.14;40.49;101578.19;5023572;27;51062;-55
2021/06/25 08:56:57;;;;;;;;;26.25;21.25;;;;;23.15;40.16;101581.78;5025397;27;51171;-50
2021/06/25 08:59:23;;;;;;;;;22.75;21.50;;;;;23.16;40.74;101580.72;5027264;27;51087;-52
2021/06/25 09:01:50;;;;;;;;;23.50;19.50;;;;;23.16;40.69;101575.19;5028822;27;51128;-54
2021/06/25 09:04:34;;;;;;;;;24.25;22.50;;;;;23.17;40.14;101586.00;5051520;27;52833;-53
2021/06/25 09:07:01;;;;;;;;;23.00;21.25;;;;;23.17;40.07;101571.34;5042804;27;54392;-51
2021/06/25 09:09:46;;;;;;;;;22.00;19.75;;;;;23.17;40.15;101577.72;5040691;27;51094;-53
2021/06/25 09:12:18;;;;;;;;;23.75;21.50;;;;;23.19;40.40;101572.81;5026294;27;51007;-52
2021/06/25 09:15:13;;;;;;;;;23.25;19.00;;;;;23.21;40.22;101572.59;5031287;27;51855;-50
2021/06/25 09:18:12;;;;;;;;;21.00;21.00;;;;;23.22;39.84;101563.22;5058984;27;50933;-53
2021/06/25 09:20:37;;;;;;;;;26.25;21.00;;;;;23.24;40.11;101569.38;5020441;27;51712;-53
2021/06/25 09:23:21;;;;;;;;;20.75;18.50;;;;;23.26;39.81;101559.81;5048051;27;51682;-54
2021/06/25 09:25:54;;;;;;;;;21.25;21.00;;;;;23.27;40.16;101566.19;5038396;27;51774;-52
2021/06/25 09:28:37;;;;;;;;;21.50;20.25;;;;;23.29;39.79;101561.25;5044209;27;51309;-54
2021/06/25 09:31:15;;;;;;;;;27.75;21.25;;;;;23.31;40.04;101556.34;5056068;27;51208;-51
2021/06/25 09:33:48;;;;;;;;;22.75;21.25;;;;;23.31;39.99;101557.19;5039093;27;51259;-54
2021/06/25 09:36:21;;;;;;;;;19.25;19.25;;;;;23.32;39.59;101556.13;5019310;27;50889;-50
2021/06/25 09:38:54;;;;;;;;;15.75;13.25;;;;;23.32;39.83;101550.59;5043967;27;51514;-52
2021/06/25 09:41:21;;;;;;;;;19.75;17.00;;;;;23.34;40.05;101547.59;5026380;27;51329;-52
2021/06/25 09:43:57;;;;;;;;;16.25;15.50;;;;;23.37;39.97;101544.41;5042918;27;51133;-52
2021/06/25 09:46:29;;;;;;;;;21.00;16.00;;;;;23.41;39.95;101542.88;5055128;27;51803;-54
2021/06/25 09:48:57;;;;;;;;;17.00;16.00;;;;;23.45;40.20;101546.06;5020809;27;51214;-51
2021/06/25 09:51:23;;;;;;;;;16.50;16.50;;;;;23.46;40.20;101540.28;5017962;27;51021;-54
2021/06/25 09:54:22;;;;;;;;;18.25;15.75;;;;;23.51;40.30;101542.38;5046314;27;51281;-55
2021/06/25 09:56:59;;;;;;;;;14.50;14.00;;;;;23.52;39.97;101544.91;5052073;27;51287;-55
2021/06/25 09:59:36;;;;;;;;;17.75;16.25;;;;;23.55;40.42;101547.25;5025441;27;51605;-55
2021/06/25 10:02:28;;;;;;;;;18.75;17.25;;;;;23.56;40.30;101540.63;5037376;27;51212;-55
2021/06/25 10:05:15;;;;;;;;;14.75;14.25;;;;;23.59;40.68;101539.38;5032530;27;51657;-56
2021/06/25 10:07:41;;;;;;;;;15.75;10.25;;;;;23.59;40.26;101537.44;5015050;27;51156;-54
2021/06/25 10:10:12;;;;;;;;;19.50;17.00;;;;;23.61;40.50;101543.59;5016867;27;51089;-56
2021/06/25 10:12:40;;;;;;;;;17.25;16.00;;;;;23.63;40.79;101536.97;5033002;27;51294;-52
2021/06/25 10:15:06;;;;;;;;;14.25;13.00;;;;;23.64;40.07;101536.75;5032500;27;51285;-53
2021/06/25 10:17:35;;;;;;;;;14.75;14.00;;;;;23.66;40.70;101533.78;5029666;27;51781;-57
2021/06/25 10:20:11;;;;;;;;;16.75;14.00;;;;;23.69;40.51;101533.31;5050576;27;51205;-55
2021/06/25 10:22:38;;;;;;;;;17.25;14.25;;;;;23.70;40.16;101527.56;5035675;27;51171;-53
2021/06/25 10:25:07;;;;;;;;;15.00;12.50;;;;;23.73;40.13;101529.00;5041820;27;51063;-51
2021/06/25 10:27:33;;;;;;;;;16.00;14.00;;;;;23.75;40.74;101524.94;5026579;27;50900;-53
2021/06/25 10:29:58;;;;;;;;;15.50;14.25;;;;;23.78;40.55;101529.19;5041529;27;51067;-52
2021/06/25 10:32:24;;;;;;;;;14.00;13.50;;;;;23.80;40.43;101530.66;5025589;27;52365;-49
2021/06/25 10:34:49;;;;;;;;;17.75;14.50;;;;;23.81;40.65;101521.28;5014842;27;51323;-47
2021/06/25 10:37:24;;;;;;;;;16.00;15.00;;;;;23.83;40.51;101521.03;5012586;28;50951;-47
2021/06/25 10:39:50;;;;;;;;;14.25;11.75;;;;;23.85;40.90;101511.41;5005360;27;51358;-49
2021/06/25 10:42:16;;;;;;;;;15.25;14.00;;;;;23.88;41.00;101521.22;5019369;28;50998;-54
2021/06/25 10:44:55;;;;;;;;;18.25;15.75;;;;;23.89;41.67;101514.59;5022755;28;50957;-51
2021/06/25 10:47:22;;;;;;;;;17.75;17.50;;;;;23.92;42.11;101513.28;5013763;28;51037;-53
2021/06/25 10:49:59;;;;;;;;;16.00;15.25;;;;;23.93;42.13;101515.81;5012244;27;51165;-54
2021/06/25 10:52:26;;;;;;;;;17.75;15.75;;;;;23.95;42.38;101510.91;5013717;28;51187;-54
2021/06/25 10:55:18;;;;;;;;;17.25;14.25;;;;;23.96;42.42;101500.66;5011932;28;51210;-54
2021/06/25 10:57:49;;;;;;;;;16.50;15.00;;;;;23.98;41.97;101499.38;5010740;28;51803;-52
2021/06/25 11:00:26;;;;;;;;;17.50;14.00;;;;;24.01;42.06;101500.84;5011156;28;51386;-53
2021/06/25 11:02:53;;;;;;;;;15.75;13.50;;;;;24.02;42.80;101500.59;5026513;28;51213;-52
2021/06/25 11:05:24;;;;;;;;;14.50;13.50;;;;;24.04;42.31;101501.22;5013293;28;51139;-54
2021/06/25 11:07:49;;;;;;;;;14.75;13.50;;;;;24.07;42.48;101503.56;5046633;27;51727;-53
2021/06/25 11:10:29;;;;;;;;;11.00;11.00;;;;;24.08;42.81;101505.22;5011490;28;51439;-57
2021/06/25 11:13:12;;;;;;;;;13.50;13.00;;;;;24.10;42.97;101514.16;5012585;28;51146;-55
2021/06/25 11:15:40;;;;;;;;;12.25;12.25;;;;;24.10;43.18;101514.16;5011630;28;51172;-58
2021/06/25 11:18:22;;;;;;;;;14.50;12.75;;;;;24.10;42.77;101510.53;5010034;28;51861;-55
2021/06/25 11:21:08;;;;;;;;;12.75;10.00;;;;;24.11;43.00;101513.06;5017081;27;51450;-55
2021/06/25 11:23:41;;;;;;;;;10.25;10.25;;;;;24.11;43.03;101503.91;5012834;27;51355;-54